sensor_id;sensor_type;location;lat;lon;timestamp;P1;durP1;ratioP1;P2;durP2;ratioP2
49310;SDS011;35177;45.900;5.946;2023-10-31T00:00:50;12.45;;;7.47;;
49310;SDS011;35177;45.900;5.946;2023-10-31T00:03:15;10.07;;;5.82;;
49310;SDS011;35177;45.900;5.946;2023-10-31T00:05:41;11.05;;;6.28;;
49310;SDS011;35177;45.900;5.946;2023-10-31T00:08:06;13.23;;;6.82;;
49310;SDS011;35177;45.900;5.946;2023-10-31T00:10:32;10.38;;;6.75;;
49310;SDS011;35177;45.900;5.946;2023-10-31T00:12:57;8.50;;;5.53;;
49310;SDS011;35177;45.900;5.946;2023-10-31T00:15:23;12.00;;;7.15;;
49310;SDS011;35177;45.900;5.946;2023-10-31T00:17:49;7.30;;;4.82;;
49310;SDS011;35177;45.900;5.946;2023-10-31T00:20:15;10.93;;;5.72;;
49310;SDS011;35177;45.900;5.946;2023-10-31T00:22:40;100.55;;;8.50;;
49310;SDS011;35177;45.900;5.946;2023-10-31T00:25:06;149.82;;;8.52;;
49310;SDS011;35177;45.900;5.946;2023-10-31T00:27:32;133.57;;;7.82;;
49310;SDS011;35177;45.900;5.946;2023-10-31T00:29:57;8.43;;;5.72;;
49310;SDS011;35177;45.900;5.946;2023-10-31T00:32:22;12.98;;;5.80;;
49310;SDS011;35177;45.900;5.946;2023-10-31T00:34:50;57.42;;;7.55;;
49310;SDS011;35177;45.900;5.946;2023-10-31T00:37:16;33.97;;;6.80;;
49310;SDS011;35177;45.900;5.946;2023-10-31T00:39:41;14.00;;;6.60;;
49310;SDS011;35177;45.900;5.946;2023-10-31T00:42:07;11.15;;;6.07;;
49310;SDS011;35177;45.900;5.946;2023-10-31T00:44:33;9.93;;;6.35;;
49310;SDS011;35177;45.900;5.946;2023-10-31T00:46:58;8.70;;;5.90;;
49310;SDS011;35177;45.900;5.946;2023-10-31T00:49:23;12.85;;;6.50;;
49310;SDS011;35177;45.900;5.946;2023-10-31T00:51:49;15.52;;;5.95;;
49310;SDS011;35177;45.900;5.946;2023-10-31T00:54:14;11.40;;;5.38;;
49310;SDS011;35177;45.900;5.946;2023-10-31T00:56:40;26.15;;;6.05;;
49310;SDS011;35177;45.900;5.946;2023-10-31T00:59:05;119.28;;;8.68;;
49310;SDS011;35177;45.900;5.946;2023-10-31T01:01:30;217.38;;;10.80;;
49310;SDS011;35177;45.900;5.946;2023-10-31T01:03:56;274.67;;;13.98;;
49310;SDS011;35177;45.900;5.946;2023-10-31T01:06:21;301.27;;;16.70;;
49310;SDS011;35177;45.900;5.946;2023-10-31T01:08:46;131.02;;;8.85;;
49310;SDS011;35177;45.900;5.946;2023-10-31T01:11:12;210.70;;;10.27;;
49310;SDS011;35177;45.900;5.946;2023-10-31T01:13:38;92.50;;;7.63;;
49310;SDS011;35177;45.900;5.946;2023-10-31T01:16:03;43.50;;;6.53;;
49310;SDS011;35177;45.900;5.946;2023-10-31T01:18:29;28.17;;;6.20;;
49310;SDS011;35177;45.900;5.946;2023-10-31T01:20:54;46.05;;;6.93;;
49310;SDS011;35177;45.900;5.946;2023-10-31T01:23:19;11.23;;;5.28;;
49310;SDS011;35177;45.900;5.946;2023-10-31T01:25:45;33.80;;;5.82;;
49310;SDS011;35177;45.900;5.946;2023-10-31T01:28:10;13.82;;;4.97;;
49310;SDS011;35177;45.900;5.946;2023-10-31T01:30:36;7.07;;;4.95;;
49310;SDS011;35177;45.900;5.946;2023-10-31T01:33:01;4.38;;;3.90;;
49310;SDS011;35177;45.900;5.946;2023-10-31T01:35:26;9.02;;;4.53;;
49310;SDS011;35177;45.900;5.946;2023-10-31T01:37:52;10.10;;;3.92;;
49310;SDS011;35177;45.900;5.946;2023-10-31T01:40:17;82.70;;;7.32;;
49310;SDS011;35177;45.900;5.946;2023-10-31T01:42:43;278.33;;;13.95;;
49310;SDS011;35177;45.900;5.946;2023-10-31T01:45:08;258.83;;;15.48;;
49310;SDS011;35177;45.900;5.946;2023-10-31T01:47:34;63.17;;;6.57;;
49310;SDS011;35177;45.900;5.946;2023-10-31T01:49:59;165.30;;;11.13;;
49310;SDS011;35177;45.900;5.946;2023-10-31T01:52:25;70.38;;;7.43;;
49310;SDS011;35177;45.900;5.946;2023-10-31T01:54:51;97.22;;;7.38;;
49310;SDS011;35177;45.900;5.946;2023-10-31T01:57:18;243.10;;;12.82;;
49310;SDS011;35177;45.900;5.946;2023-10-31T01:59:46;79.70;;;6.70;;
49310;SDS011;35177;45.900;5.946;2023-10-31T02:02:11;154.68;;;11.05;;
49310;SDS011;35177;45.900;5.946;2023-10-31T02:04:36;135.98;;;7.97;;
49310;SDS011;35177;45.900;5.946;2023-10-31T02:07:02;113.20;;;7.07;;
49310;SDS011;35177;45.900;5.946;2023-10-31T02:09:27;42.35;;;5.68;;
49310;SDS011;35177;45.900;5.946;2023-10-31T02:11:54;53.97;;;5.40;;
49310;SDS011;35177;45.900;5.946;2023-10-31T02:14:21;83.10;;;5.93;;
49310;SDS011;35177;45.900;5.946;2023-10-31T02:16:47;46.10;;;5.90;;
49310;SDS011;35177;45.900;5.946;2023-10-31T02:19:13;19.02;;;4.30;;
49310;SDS011;35177;45.900;5.946;2023-10-31T02:21:42;63.80;;;4.82;;
49310;SDS011;35177;45.900;5.946;2023-10-31T02:24:07;20.88;;;4.43;;
49310;SDS011;35177;45.900;5.946;2023-10-31T02:26:34;4.93;;;3.50;;
49310;SDS011;35177;45.900;5.946;2023-10-31T02:29:00;7.38;;;4.43;;
49310;SDS011;35177;45.900;5.946;2023-10-31T02:31:26;6.10;;;4.75;;
49310;SDS011;35177;45.900;5.946;2023-10-31T02:33:52;8.02;;;5.10;;
49310;SDS011;35177;45.900;5.946;2023-10-31T02:36:18;6.35;;;4.85;;
49310;SDS011;35177;45.900;5.946;2023-10-31T02:38:43;8.35;;;5.65;;
49310;SDS011;35177;45.900;5.946;2023-10-31T02:41:09;7.43;;;5.13;;
49310;SDS011;35177;45.900;5.946;2023-10-31T02:43:34;8.70;;;5.03;;
49310;SDS011;35177;45.900;5.946;2023-10-31T02:46:00;7.18;;;4.97;;
49310;SDS011;35177;45.900;5.946;2023-10-31T02:48:26;12.35;;;5.03;;
49310;SDS011;35177;45.900;5.946;2023-10-31T02:50:51;8.93;;;5.65;;
49310;SDS011;35177;45.900;5.946;2023-10-31T02:53:20;8.80;;;5.63;;
49310;SDS011;35177;45.900;5.946;2023-10-31T02:55:46;12.88;;;6.38;;
49310;SDS011;35177;45.900;5.946;2023-10-31T02:58:11;13.90;;;6.57;;
49310;SDS011;35177;45.900;5.946;2023-10-31T03:00:37;11.27;;;7.18;;
49310;SDS011;35177;45.900;5.946;2023-10-31T03:03:02;12.60;;;7.68;;
49310;SDS011;35177;45.900;5.946;2023-10-31T03:05:28;16.05;;;8.05;;
49310;SDS011;35177;45.900;5.946;2023-10-31T03:07:54;15.05;;;7.97;;
49310;SDS011;35177;45.900;5.946;2023-10-31T03:10:19;15.60;;;8.55;;
49310;SDS011;35177;45.900;5.946;2023-10-31T03:12:46;13.25;;;8.02;;
49310;SDS011;35177;45.900;5.946;2023-10-31T03:15:12;19.92;;;9.25;;
49310;SDS011;35177;45.900;5.946;2023-10-31T03:17:37;75.25;;;10.38;;
49310;SDS011;35177;45.900;5.946;2023-10-31T03:20:03;25.70;;;9.18;;
49310;SDS011;35177;45.900;5.946;2023-10-31T03:22:29;26.67;;;8.57;;
49310;SDS011;35177;45.900;5.946;2023-10-31T03:24:54;30.23;;;8.85;;
49310;SDS011;35177;45.900;5.946;2023-10-31T03:27:19;16.58;;;8.00;;
49310;SDS011;35177;45.900;5.946;2023-10-31T03:29:45;15.52;;;8.05;;
49310;SDS011;35177;45.900;5.946;2023-10-31T03:32:11;15.65;;;7.90;;
49310;SDS011;35177;45.900;5.946;2023-10-31T03:34:37;20.33;;;7.82;;
49310;SDS011;35177;45.900;5.946;2023-10-31T03:37:03;13.77;;;6.88;;
49310;SDS011;35177;45.900;5.946;2023-10-31T03:39:29;16.42;;;7.30;;
49310;SDS011;35177;45.900;5.946;2023-10-31T03:41:54;27.27;;;7.85;;
49310;SDS011;35177;45.900;5.946;2023-10-31T03:44:20;11.93;;;6.80;;
49310;SDS011;35177;45.900;5.946;2023-10-31T03:46:45;32.78;;;6.85;;
49310;SDS011;35177;45.900;5.946;2023-10-31T03:49:11;43.88;;;7.47;;
49310;SDS011;35177;45.900;5.946;2023-10-31T03:51:36;278.35;;;13.13;;
49310;SDS011;35177;45.900;5.946;2023-10-31T03:54:02;154.73;;;9.82;;
49310;SDS011;35177;45.900;5.946;2023-10-31T03:56:27;22.58;;;7.05;;
49310;SDS011;35177;45.900;5.946;2023-10-31T03:58:53;34.58;;;8.55;;
49310;SDS011;35177;45.900;5.946;2023-10-31T04:01:18;36.30;;;8.48;;
49310;SDS011;35177;45.900;5.946;2023-10-31T04:03:43;134.48;;;11.23;;
49310;SDS011;35177;45.900;5.946;2023-10-31T04:06:09;20.48;;;8.48;;
49310;SDS011;35177;45.900;5.946;2023-10-31T04:08:34;12.85;;;8.15;;
49310;SDS011;35177;45.900;5.946;2023-10-31T04:11:00;15.82;;;8.52;;
49310;SDS011;35177;45.900;5.946;2023-10-31T04:13:25;20.98;;;9.02;;
49310;SDS011;35177;45.900;5.946;2023-10-31T04:15:51;16.67;;;7.25;;
49310;SDS011;35177;45.900;5.946;2023-10-31T04:18:16;9.93;;;6.45;;
49310;SDS011;35177;45.900;5.946;2023-10-31T04:20:42;15.23;;;7.88;;
49310;SDS011;35177;45.900;5.946;2023-10-31T04:23:07;22.63;;;7.80;;
49310;SDS011;35177;45.900;5.946;2023-10-31T04:25:33;67.38;;;8.55;;
49310;SDS011;35177;45.900;5.946;2023-10-31T04:27:59;211.65;;;10.23;;
49310;SDS011;35177;45.900;5.946;2023-10-31T04:30:25;96.88;;;8.68;;
49310;SDS011;35177;45.900;5.946;2023-10-31T04:32:51;33.72;;;7.45;;
49310;SDS011;35177;45.900;5.946;2023-10-31T04:35:16;16.25;;;6.40;;
49310;SDS011;35177;45.900;5.946;2023-10-31T04:37:42;9.40;;;6.45;;
49310;SDS011;35177;45.900;5.946;2023-10-31T04:40:07;10.40;;;6.25;;
49310;SDS011;35177;45.900;5.946;2023-10-31T04:42:33;11.25;;;5.45;;
49310;SDS011;35177;45.900;5.946;2023-10-31T04:44:59;8.63;;;5.85;;
49310;SDS011;35177;45.900;5.946;2023-10-31T04:47:24;10.25;;;5.97;;
49310;SDS011;35177;45.900;5.946;2023-10-31T04:49:50;9.18;;;6.00;;
49310;SDS011;35177;45.900;5.946;2023-10-31T04:52:16;8.23;;;4.95;;
49310;SDS011;35177;45.900;5.946;2023-10-31T04:54:42;8.52;;;5.32;;
49310;SDS011;35177;45.900;5.946;2023-10-31T04:57:07;7.57;;;5.32;;
49310;SDS011;35177;45.900;5.946;2023-10-31T04:59:33;8.25;;;5.80;;
49310;SDS011;35177;45.900;5.946;2023-10-31T05:01:58;10.68;;;5.32;;
49310;SDS011;35177;45.900;5.946;2023-10-31T05:04:24;7.50;;;4.00;;
49310;SDS011;35177;45.900;5.946;2023-10-31T05:06:49;8.20;;;5.22;;
49310;SDS011;35177;45.900;5.946;2023-10-31T05:09:15;8.45;;;5.03;;
49310;SDS011;35177;45.900;5.946;2023-10-31T05:11:40;4.55;;;3.70;;
49310;SDS011;35177;45.900;5.946;2023-10-31T05:14:08;4.85;;;2.88;;
49310;SDS011;35177;45.900;5.946;2023-10-31T05:16:41;2.63;;;1.98;;
49310;SDS011;35177;45.900;5.946;2023-10-31T05:19:07;4.32;;;1.90;;
49310;SDS011;35177;45.900;5.946;2023-10-31T05:21:33;3.25;;;1.77;;
49310;SDS011;35177;45.900;5.946;2023-10-31T05:23:59;2.50;;;2.08;;
49310;SDS011;35177;45.900;5.946;2023-10-31T05:26:24;5.45;;;3.15;;
49310;SDS011;35177;45.900;5.946;2023-10-31T05:28:50;3.25;;;2.20;;
49310;SDS011;35177;45.900;5.946;2023-10-31T05:31:15;8.40;;;2.75;;
49310;SDS011;35177;45.900;5.946;2023-10-31T05:33:41;4.40;;;2.58;;
49310;SDS011;35177;45.900;5.946;2023-10-31T05:36:06;3.08;;;2.25;;
49310;SDS011;35177;45.900;5.946;2023-10-31T05:38:43;2.55;;;1.95;;
49310;SDS011;35177;45.900;5.946;2023-10-31T05:41:08;4.88;;;1.98;;
49310;SDS011;35177;45.900;5.946;2023-10-31T05:43:34;2.55;;;1.52;;
49310;SDS011;35177;45.900;5.946;2023-10-31T05:45:59;6.55;;;1.88;;
49310;SDS011;35177;45.900;5.946;2023-10-31T05:48:24;3.30;;;1.52;;
49310;SDS011;35177;45.900;5.946;2023-10-31T05:50:50;4.53;;;2.17;;
49310;SDS011;35177;45.900;5.946;2023-10-31T05:53:15;3.92;;;1.60;;
49310;SDS011;35177;45.900;5.946;2023-10-31T05:55:40;2.60;;;1.42;;
49310;SDS011;35177;45.900;5.946;2023-10-31T05:58:06;1.65;;;1.50;;
49310;SDS011;35177;45.900;5.946;2023-10-31T06:00:31;5.97;;;1.75;;
49310;SDS011;35177;45.900;5.946;2023-10-31T06:02:57;3.70;;;1.40;;
49310;SDS011;35177;45.900;5.946;2023-10-31T06:05:22;3.50;;;1.73;;
49310;SDS011;35177;45.900;5.946;2023-10-31T06:07:47;3.42;;;1.50;;
49310;SDS011;35177;45.900;5.946;2023-10-31T06:10:13;2.45;;;1.33;;
49310;SDS011;35177;45.900;5.946;2023-10-31T06:12:38;3.60;;;1.23;;
49310;SDS011;35177;45.900;5.946;2023-10-31T06:15:04;4.25;;;1.88;;
49310;SDS011;35177;45.900;5.946;2023-10-31T06:17:30;2.88;;;1.20;;
49310;SDS011;35177;45.900;5.946;2023-10-31T06:19:58;3.47;;;1.45;;
49310;SDS011;35177;45.900;5.946;2023-10-31T06:22:24;1.98;;;1.52;;
49310;SDS011;35177;45.900;5.946;2023-10-31T06:24:49;3.75;;;1.58;;
49310;SDS011;35177;45.900;5.946;2023-10-31T06:27:15;6.60;;;2.33;;
49310;SDS011;35177;45.900;5.946;2023-10-31T06:29:40;5.03;;;1.40;;
49310;SDS011;35177;45.900;5.946;2023-10-31T06:32:06;2.33;;;1.42;;
49310;SDS011;35177;45.900;5.946;2023-10-31T06:34:31;3.70;;;1.45;;
49310;SDS011;35177;45.900;5.946;2023-10-31T06:36:56;1.73;;;1.50;;
49310;SDS011;35177;45.900;5.946;2023-10-31T06:39:22;1.58;;;1.48;;
49310;SDS011;35177;45.900;5.946;2023-10-31T06:41:48;2.13;;;1.42;;
49310;SDS011;35177;45.900;5.946;2023-10-31T06:44:13;3.15;;;1.70;;
49310;SDS011;35177;45.900;5.946;2023-10-31T06:46:39;3.58;;;1.67;;
49310;SDS011;35177;45.900;5.946;2023-10-31T06:49:04;4.47;;;1.67;;
49310;SDS011;35177;45.900;5.946;2023-10-31T06:51:29;1.75;;;1.50;;
49310;SDS011;35177;45.900;5.946;2023-10-31T06:53:55;5.60;;;1.65;;
49310;SDS011;35177;45.900;5.946;2023-10-31T06:56:20;2.75;;;1.40;;
49310;SDS011;35177;45.900;5.946;2023-10-31T06:58:46;2.60;;;1.60;;
49310;SDS011;35177;45.900;5.946;2023-10-31T07:01:11;2.53;;;2.00;;
49310;SDS011;35177;45.900;5.946;2023-10-31T07:03:38;3.65;;;2.03;;
49310;SDS011;35177;45.900;5.946;2023-10-31T07:06:04;3.67;;;2.13;;
49310;SDS011;35177;45.900;5.946;2023-10-31T07:08:29;11.55;;;2.70;;
49310;SDS011;35177;45.900;5.946;2023-10-31T07:10:55;4.90;;;1.98;;
49310;SDS011;35177;45.900;5.946;2023-10-31T07:13:20;3.88;;;1.85;;
49310;SDS011;35177;45.900;5.946;2023-10-31T07:15:46;4.03;;;2.20;;
49310;SDS011;35177;45.900;5.946;2023-10-31T07:18:12;3.55;;;2.30;;
49310;SDS011;35177;45.900;5.946;2023-10-31T07:20:37;5.85;;;2.08;;
49310;SDS011;35177;45.900;5.946;2023-10-31T07:23:03;3.65;;;2.10;;
49310;SDS011;35177;45.900;5.946;2023-10-31T07:25:28;7.28;;;1.88;;
49310;SDS011;35177;45.900;5.946;2023-10-31T07:27:54;9.13;;;1.67;;
49310;SDS011;35177;45.900;5.946;2023-10-31T07:30:19;3.38;;;1.73;;
49310;SDS011;35177;45.900;5.946;2023-10-31T07:32:44;2.72;;;1.60;;
49310;SDS011;35177;45.900;5.946;2023-10-31T07:35:10;3.10;;;1.55;;
49310;SDS011;35177;45.900;5.946;2023-10-31T07:37:35;2.97;;;1.73;;
49310;SDS011;35177;45.900;5.946;2023-10-31T07:40:01;4.75;;;1.55;;
49310;SDS011;35177;45.900;5.946;2023-10-31T07:42:29;2.13;;;1.63;;
49310;SDS011;35177;45.900;5.946;2023-10-31T07:44:54;5.80;;;1.70;;
49310;SDS011;35177;45.900;5.946;2023-10-31T07:47:21;1.70;;;1.30;;
49310;SDS011;35177;45.900;5.946;2023-10-31T07:49:46;2.13;;;1.55;;
49310;SDS011;35177;45.900;5.946;2023-10-31T07:52:13;2.92;;;1.80;;
49310;SDS011;35177;45.900;5.946;2023-10-31T07:54:39;2.33;;;1.90;;
49310;SDS011;35177;45.900;5.946;2023-10-31T07:57:05;3.85;;;1.70;;
49310;SDS011;35177;45.900;5.946;2023-10-31T07:59:33;3.28;;;1.30;;
49310;SDS011;35177;45.900;5.946;2023-10-31T08:01:59;3.33;;;1.55;;
49310;SDS011;35177;45.900;5.946;2023-10-31T08:04:24;2.10;;;1.40;;
49310;SDS011;35177;45.900;5.946;2023-10-31T08:06:50;1.40;;;1.20;;
49310;SDS011;35177;45.900;5.946;2023-10-31T08:09:15;2.95;;;1.17;;
49310;SDS011;35177;45.900;5.946;2023-10-31T08:11:41;3.38;;;1.27;;
49310;SDS011;35177;45.900;5.946;2023-10-31T08:14:06;3.72;;;1.20;;
49310;SDS011;35177;45.900;5.946;2023-10-31T08:16:32;2.60;;;1.27;;
49310;SDS011;35177;45.900;5.946;2023-10-31T08:18:57;3.63;;;1.50;;
49310;SDS011;35177;45.900;5.946;2023-10-31T08:21:23;3.88;;;1.48;;
49310;SDS011;35177;45.900;5.946;2023-10-31T08:23:48;3.55;;;1.58;;
49310;SDS011;35177;45.900;5.946;2023-10-31T08:26:14;2.28;;;1.33;;
49310;SDS011;35177;45.900;5.946;2023-10-31T08:28:39;2.85;;;1.70;;
49310;SDS011;35177;45.900;5.946;2023-10-31T08:31:05;4.20;;;1.75;;
49310;SDS011;35177;45.900;5.946;2023-10-31T08:33:31;2.35;;;1.80;;
49310;SDS011;35177;45.900;5.946;2023-10-31T08:35:56;2.70;;;1.90;;
49310;SDS011;35177;45.900;5.946;2023-10-31T08:38:24;2.10;;;1.83;;
49310;SDS011;35177;45.900;5.946;2023-10-31T08:40:49;4.65;;;2.05;;
49310;SDS011;35177;45.900;5.946;2023-10-31T08:43:15;4.40;;;1.95;;
49310;SDS011;35177;45.900;5.946;2023-10-31T08:45:40;6.22;;;2.25;;
49310;SDS011;35177;45.900;5.946;2023-10-31T08:48:06;2.83;;;2.20;;
49310;SDS011;35177;45.900;5.946;2023-10-31T08:50:31;3.67;;;2.20;;
49310;SDS011;35177;45.900;5.946;2023-10-31T08:52:56;3.95;;;2.30;;
49310;SDS011;35177;45.900;5.946;2023-10-31T08:55:22;5.72;;;2.20;;
49310;SDS011;35177;45.900;5.946;2023-10-31T08:57:47;4.28;;;2.45;;
49310;SDS011;35177;45.900;5.946;2023-10-31T09:00:13;4.05;;;2.75;;
49310;SDS011;35177;45.900;5.946;2023-10-31T09:02:39;4.97;;;2.20;;
49310;SDS011;35177;45.900;5.946;2023-10-31T09:05:04;2.90;;;2.30;;
49310;SDS011;35177;45.900;5.946;2023-10-31T09:07:30;3.70;;;1.80;;
49310;SDS011;35177;45.900;5.946;2023-10-31T09:09:57;2.60;;;2.08;;
49310;SDS011;35177;45.900;5.946;2023-10-31T09:12:22;5.65;;;2.47;;
49310;SDS011;35177;45.900;5.946;2023-10-31T09:14:48;4.18;;;2.33;;
49310;SDS011;35177;45.900;5.946;2023-10-31T09:17:13;6.05;;;2.30;;
49310;SDS011;35177;45.900;5.946;2023-10-31T09:19:39;4.68;;;2.13;;
49310;SDS011;35177;45.900;5.946;2023-10-31T09:22:04;3.97;;;2.10;;
49310;SDS011;35177;45.900;5.946;2023-10-31T09:24:29;2.85;;;2.03;;
49310;SDS011;35177;45.900;5.946;2023-10-31T09:26:55;2.65;;;1.70;;
49310;SDS011;35177;45.900;5.946;2023-10-31T09:29:20;4.65;;;2.03;;
49310;SDS011;35177;45.900;5.946;2023-10-31T09:31:46;4.32;;;1.92;;
49310;SDS011;35177;45.900;5.946;2023-10-31T09:34:12;2.05;;;1.75;;
49310;SDS011;35177;45.900;5.946;2023-10-31T09:36:39;2.83;;;1.70;;
49310;SDS011;35177;45.900;5.946;2023-10-31T09:39:05;1.83;;;1.52;;
49310;SDS011;35177;45.900;5.946;2023-10-31T09:41:31;2.58;;;1.83;;
49310;SDS011;35177;45.900;5.946;2023-10-31T09:43:57;5.63;;;1.35;;
49310;SDS011;35177;45.900;5.946;2023-10-31T09:46:23;4.32;;;1.85;;
49310;SDS011;35177;45.900;5.946;2023-10-31T09:48:49;2.80;;;1.42;;
49310;SDS011;35177;45.900;5.946;2023-10-31T09:51:15;4.55;;;1.75;;
49310;SDS011;35177;45.900;5.946;2023-10-31T09:53:41;6.00;;;2.25;;
49310;SDS011;35177;45.900;5.946;2023-10-31T09:56:09;2.10;;;1.52;;
49310;SDS011;35177;45.900;5.946;2023-10-31T09:58:35;5.93;;;2.20;;
49310;SDS011;35177;45.900;5.946;2023-10-31T10:01:00;4.28;;;1.77;;
49310;SDS011;35177;45.900;5.946;2023-10-31T10:03:26;3.42;;;1.67;;
49310;SDS011;35177;45.900;5.946;2023-10-31T10:05:52;3.85;;;2.08;;
49310;SDS011;35177;45.900;5.946;2023-10-31T10:08:19;7.70;;;1.60;;
49310;SDS011;35177;45.900;5.946;2023-10-31T10:10:44;1.90;;;1.60;;
49310;SDS011;35177;45.900;5.946;2023-10-31T10:13:10;3.35;;;1.70;;
49310;SDS011;35177;45.900;5.946;2023-10-31T10:15:46;2.97;;;1.50;;
49310;SDS011;35177;45.900;5.946;2023-10-31T10:18:32;2.80;;;1.45;;
49310;SDS011;35177;45.900;5.946;2023-10-31T10:21:06;2.75;;;1.30;;
49310;SDS011;35177;45.900;5.946;2023-10-31T10:23:33;3.13;;;1.40;;
49310;SDS011;35177;45.900;5.946;2023-10-31T10:25:59;2.13;;;1.05;;
49310;SDS011;35177;45.900;5.946;2023-10-31T10:28:25;1.92;;;1.33;;
49310;SDS011;35177;45.900;5.946;2023-10-31T10:30:52;3.45;;;1.80;;
49310;SDS011;35177;45.900;5.946;2023-10-31T10:33:19;2.22;;;1.23;;
49310;SDS011;35177;45.900;5.946;2023-10-31T10:35:45;2.40;;;1.90;;
49310;SDS011;35177;45.900;5.946;2023-10-31T10:38:15;3.90;;;2.20;;
49310;SDS011;35177;45.900;5.946;2023-10-31T10:40:42;2.78;;;1.60;;
49310;SDS011;35177;45.900;5.946;2023-10-31T10:45:45;2.10;;;1.77;;
49310;SDS011;35177;45.900;5.946;2023-10-31T10:48:13;4.90;;;1.50;;
49310;SDS011;35177;45.900;5.946;2023-10-31T10:50:45;2.65;;;1.45;;
49310;SDS011;35177;45.900;5.946;2023-10-31T10:56:13;2.85;;;1.45;;
49310;SDS011;35177;45.900;5.946;2023-10-31T10:58:55;3.97;;;1.40;;
49310;SDS011;35177;45.900;5.946;2023-10-31T11:01:26;2.53;;;1.43;;
49310;SDS011;35177;45.900;5.946;2023-10-31T11:03:53;5.35;;;1.45;;
49310;SDS011;35177;45.900;5.946;2023-10-31T11:06:20;3.20;;;1.50;;
49310;SDS011;35177;45.900;5.946;2023-10-31T11:08:46;2.95;;;1.50;;
49310;SDS011;35177;45.900;5.946;2023-10-31T11:11:12;2.58;;;1.00;;
49310;SDS011;35177;45.900;5.946;2023-10-31T11:13:40;2.55;;;1.23;;
49310;SDS011;35177;45.900;5.946;2023-10-31T11:16:11;4.43;;;1.25;;
49310;SDS011;35177;45.900;5.946;2023-10-31T11:18:40;5.50;;;1.45;;
49310;SDS011;35177;45.900;5.946;2023-10-31T11:21:07;4.60;;;1.70;;
49310;SDS011;35177;45.900;5.946;2023-10-31T11:23:32;4.53;;;2.10;;
49310;SDS011;35177;45.900;5.946;2023-10-31T11:25:57;3.25;;;1.98;;
49310;SDS011;35177;45.900;5.946;2023-10-31T11:28:23;3.67;;;1.42;;
49310;SDS011;35177;45.900;5.946;2023-10-31T11:30:50;3.30;;;1.48;;
49310;SDS011;35177;45.900;5.946;2023-10-31T11:33:19;3.15;;;1.30;;
49310;SDS011;35177;45.900;5.946;2023-10-31T11:35:50;2.83;;;1.58;;
49310;SDS011;35177;45.900;5.946;2023-10-31T11:38:16;3.42;;;1.63;;
49310;SDS011;35177;45.900;5.946;2023-10-31T11:43:09;1.48;;;1.38;;
49310;SDS011;35177;45.900;5.946;2023-10-31T11:45:39;1.60;;;0.60;;
49310;SDS011;35177;45.900;5.946;2023-10-31T11:48:12;3.55;;;1.30;;
49310;SDS011;35177;45.900;5.946;2023-10-31T11:50:39;1.20;;;0.52;;
49310;SDS011;35177;45.900;5.946;2023-10-31T11:53:14;1.98;;;0.70;;
49310;SDS011;35177;45.900;5.946;2023-10-31T11:55:43;1.77;;;0.50;;
49310;SDS011;35177;45.900;5.946;2023-10-31T11:58:17;3.08;;;0.70;;
49310;SDS011;35177;45.900;5.946;2023-10-31T12:00:45;0.73;;;0.40;;
49310;SDS011;35177;45.900;5.946;2023-10-31T12:03:11;0.65;;;0.40;;
49310;SDS011;35177;45.900;5.946;2023-10-31T12:05:38;1.35;;;0.40;;
49310;SDS011;35177;45.900;5.946;2023-10-31T12:08:03;2.33;;;0.40;;
49310;SDS011;35177;45.900;5.946;2023-10-31T12:10:29;1.67;;;0.40;;
49310;SDS011;35177;45.900;5.946;2023-10-31T12:12:58;4.05;;;0.40;;
49310;SDS011;35177;45.900;5.946;2023-10-31T12:15:27;0.20;;;0.20;;
49310;SDS011;35177;45.900;5.946;2023-10-31T12:17:52;1.40;;;0.30;;
49310;SDS011;35177;45.900;5.946;2023-10-31T12:20:23;0.40;;;0.25;;
49310;SDS011;35177;45.900;5.946;2023-10-31T12:23:00;0.20;;;0.20;;
49310;SDS011;35177;45.900;5.946;2023-10-31T12:25:27;4.15;;;0.50;;
49310;SDS011;35177;45.900;5.946;2023-10-31T12:27:53;0.43;;;0.43;;
49310;SDS011;35177;45.900;5.946;2023-10-31T12:30:20;2.03;;;0.90;;
49310;SDS011;35177;45.900;5.946;2023-10-31T12:32:54;4.85;;;1.73;;
49310;SDS011;35177;45.900;5.946;2023-10-31T12:35:22;0.65;;;0.50;;
49310;SDS011;35177;45.900;5.946;2023-10-31T12:37:49;2.30;;;0.80;;
49310;SDS011;35177;45.900;5.946;2023-10-31T12:40:21;1.17;;;0.73;;
49310;SDS011;35177;45.900;5.946;2023-10-31T12:42:48;0.85;;;0.50;;
49310;SDS011;35177;45.900;5.946;2023-10-31T12:45:15;1.02;;;0.70;;
49310;SDS011;35177;45.900;5.946;2023-10-31T12:47:42;0.65;;;0.65;;
49310;SDS011;35177;45.900;5.946;2023-10-31T12:52:48;1.90;;;1.13;;
49310;SDS011;35177;45.900;5.946;2023-10-31T12:55:19;1.13;;;0.85;;
49310;SDS011;35177;45.900;5.946;2023-10-31T12:57:46;0.70;;;0.70;;
49310;SDS011;35177;45.900;5.946;2023-10-31T13:00:12;1.17;;;0.85;;
49310;SDS011;35177;45.900;5.946;2023-10-31T13:02:39;2.00;;;0.80;;
49310;SDS011;35177;45.900;5.946;2023-10-31T13:05:08;2.70;;;0.93;;
49310;SDS011;35177;45.900;5.946;2023-10-31T13:07:35;2.22;;;0.80;;
49310;SDS011;35177;45.900;5.946;2023-10-31T13:10:01;1.08;;;0.80;;
49310;SDS011;35177;45.900;5.946;2023-10-31T13:12:27;1.98;;;0.88;;
49310;SDS011;35177;45.900;5.946;2023-10-31T13:14:55;0.73;;;0.63;;
49310;SDS011;35177;45.900;5.946;2023-10-31T13:17:21;3.83;;;1.02;;
49310;SDS011;35177;45.900;5.946;2023-10-31T13:19:46;1.25;;;0.70;;
49310;SDS011;35177;45.900;5.946;2023-10-31T13:22:12;1.23;;;0.90;;
49310;SDS011;35177;45.900;5.946;2023-10-31T13:24:37;1.85;;;0.80;;
49310;SDS011;35177;45.900;5.946;2023-10-31T13:27:02;0.88;;;0.60;;
49310;SDS011;35177;45.900;5.946;2023-10-31T13:29:28;1.55;;;0.55;;
49310;SDS011;35177;45.900;5.946;2023-10-31T13:31:54;0.70;;;0.55;;
49310;SDS011;35177;45.900;5.946;2023-10-31T13:34:20;2.78;;;0.55;;
49310;SDS011;35177;45.900;5.946;2023-10-31T13:36:45;1.00;;;0.63;;
49310;SDS011;35177;45.900;5.946;2023-10-31T13:39:11;0.73;;;0.50;;
49310;SDS011;35177;45.900;5.946;2023-10-31T13:41:37;2.17;;;0.85;;
49310;SDS011;35177;45.900;5.946;2023-10-31T13:44:02;5.72;;;0.52;;
49310;SDS011;35177;45.900;5.946;2023-10-31T13:46:28;2.08;;;0.50;;
49310;SDS011;35177;45.900;5.946;2023-10-31T13:48:54;1.00;;;0.45;;
49310;SDS011;35177;45.900;5.946;2023-10-31T13:51:19;1.00;;;0.52;;
49310;SDS011;35177;45.900;5.946;2023-10-31T13:53:45;1.25;;;0.60;;
49310;SDS011;35177;45.900;5.946;2023-10-31T13:56:11;1.17;;;0.63;;
49310;SDS011;35177;45.900;5.946;2023-10-31T13:58:36;2.20;;;0.63;;
49310;SDS011;35177;45.900;5.946;2023-10-31T14:01:01;2.53;;;0.70;;
49310;SDS011;35177;45.900;5.946;2023-10-31T14:03:27;3.88;;;0.80;;
49310;SDS011;35177;45.900;5.946;2023-10-31T14:05:52;1.02;;;0.70;;
49310;SDS011;35177;45.900;5.946;2023-10-31T14:08:18;1.75;;;0.75;;
49310;SDS011;35177;45.900;5.946;2023-10-31T14:10:44;1.70;;;0.65;;
49310;SDS011;35177;45.900;5.946;2023-10-31T14:13:11;1.30;;;0.80;;
49310;SDS011;35177;45.900;5.946;2023-10-31T14:15:37;0.55;;;0.30;;
49310;SDS011;35177;45.900;5.946;2023-10-31T14:18:03;0.93;;;0.50;;
49310;SDS011;35177;45.900;5.946;2023-10-31T14:20:28;0.85;;;0.35;;
49310;SDS011;35177;45.900;5.946;2023-10-31T14:22:54;2.53;;;0.55;;
49310;SDS011;35177;45.900;5.946;2023-10-31T14:25:20;1.27;;;0.75;;
49310;SDS011;35177;45.900;5.946;2023-10-31T14:27:45;1.75;;;0.70;;
49310;SDS011;35177;45.900;5.946;2023-10-31T14:30:11;2.45;;;0.50;;
49310;SDS011;35177;45.900;5.946;2023-10-31T14:32:37;1.27;;;0.50;;
49310;SDS011;35177;45.900;5.946;2023-10-31T14:35:03;0.80;;;0.70;;
49310;SDS011;35177;45.900;5.946;2023-10-31T14:37:29;2.63;;;0.85;;
49310;SDS011;35177;45.900;5.946;2023-10-31T14:39:55;1.98;;;1.10;;
49310;SDS011;35177;45.900;5.946;2023-10-31T14:42:21;2.50;;;1.02;;
49310;SDS011;35177;45.900;5.946;2023-10-31T14:44:46;17.48;;;4.72;;
49310;SDS011;35177;45.900;5.946;2023-10-31T14:47:12;2.33;;;1.40;;